createdAt,value
2022-09-30T00:02:18.319Z,6.55
2022-09-30T00:07:21.239Z,5.25
2022-09-30T00:12:23.853Z,4.38
2022-09-30T00:17:28.281Z,5.03
2022-09-30T00:22:30.904Z,4.03
2022-09-30T00:27:33.483Z,5.30
2022-09-30T00:32:37.603Z,8.73
2022-09-30T00:37:40.485Z,7.20
2022-09-30T00:42:43.171Z,5.32
2022-09-30T00:47:54.509Z,4.22
2022-09-30T00:53:01.682Z,3.58
2022-09-30T00:58:05.595Z,5.20
2022-09-30T01:03:09.583Z,4.95
2022-09-30T01:08:12.565Z,4.68
2022-09-30T01:13:17.860Z,4.03
2022-09-30T01:18:28.516Z,3.63
2022-09-30T01:23:54.942Z,3.67
2022-09-30T01:29:11.075Z,3.25
2022-09-30T01:34:19.484Z,3.22
2022-09-30T01:39:34.132Z,2.90
2022-09-30T01:44:39.548Z,3.70
2022-09-30T01:49:46.831Z,3.58
2022-09-30T01:54:53.105Z,3.75
2022-09-30T01:59:58.557Z,2.90
2022-09-30T02:05:04.722Z,4.07
2022-09-30T02:10:11.303Z,3.00
2022-09-30T02:15:16.575Z,2.95
2022-09-30T02:20:23.437Z,3.25
2022-09-30T02:25:29.143Z,4.00
2022-09-30T02:30:32.922Z,3.25
2022-09-30T02:35:38.531Z,4.45
2022-09-30T02:40:45.079Z,3.03
2022-09-30T02:45:52.053Z,2.88
2022-09-30T02:51:01.364Z,3.92
2022-09-30T02:56:10.417Z,3.25
2022-09-30T03:01:14.523Z,2.28
2022-09-30T03:06:19.345Z,3.72
2022-09-30T03:11:24.408Z,4.93
2022-09-30T03:16:37.351Z,2.67
2022-09-30T03:21:52.813Z,4.03
2022-09-30T03:27:01.579Z,5.00
2022-09-30T03:32:11.950Z,4.03
2022-09-30T03:37:20.962Z,5.50
2022-09-30T03:42:27.071Z,4.53
2022-09-30T03:47:32.833Z,4.25
2022-09-30T03:52:37.358Z,4.80
2022-09-30T03:57:39.995Z,4.65
2022-09-30T04:02:43.000Z,9.05
2022-09-30T04:07:47.250Z,5.72
2022-09-30T04:12:49.839Z,4.60
2022-09-30T04:17:52.433Z,6.18
2022-09-30T04:22:58.128Z,6.40
2022-09-30T04:28:00.730Z,6.47
2022-09-30T04:33:03.472Z,6.78
2022-09-30T04:38:07.674Z,3.95
2022-09-30T04:43:10.284Z,4.50
2022-09-30T04:48:12.954Z,3.70
2022-09-30T04:53:17.489Z,4.32
2022-09-30T04:58:20.058Z,4.10
2022-09-30T05:03:22.816Z,7.38
2022-09-30T05:08:26.844Z,7.68
2022-09-30T05:13:32.531Z,5.78
2022-09-30T05:18:37.081Z,5.53
2022-09-30T05:23:41.152Z,4.93
2022-09-30T05:28:43.891Z,5.05
2022-09-30T05:33:46.855Z,7.43
2022-09-30T05:38:53.272Z,6.15
2022-09-30T05:43:55.914Z,4.55
2022-09-30T05:48:58.577Z,7.50
2022-09-30T05:54:02.629Z,5.25
2022-09-30T05:59:05.541Z,4.35
2022-09-30T06:04:08.238Z,5.03
2022-09-30T06:09:12.251Z,4.90
2022-09-30T06:14:16.894Z,3.95
2022-09-30T06:19:19.613Z,4.05
2022-09-30T06:24:23.632Z,11.68
2022-09-30T06:29:26.348Z,6.32
2022-09-30T06:34:29.190Z,6.85
2022-09-30T06:39:33.164Z,5.40
2022-09-30T06:44:46.016Z,7.07
2022-09-30T06:49:53.225Z,5.75
2022-09-30T06:54:57.500Z,5.18
2022-09-30T07:00:00.068Z,4.28
2022-09-30T07:05:04.156Z,4.38
2022-09-30T07:10:09.154Z,7.18
2022-09-30T07:15:13.820Z,8.10
2022-09-30T07:20:16.676Z,6.90
2022-09-30T07:25:20.579Z,4.43
2022-09-30T07:30:27.282Z,7.72
2022-09-30T07:35:30.243Z,8.05
2022-09-30T07:40:34.192Z,5.38
2022-09-30T07:45:37.692Z,5.32
2022-09-30T07:50:45.327Z,5.97
2022-09-30T07:55:49.391Z,8.35
2022-09-30T08:00:52.236Z,7.10
2022-09-30T08:05:54.966Z,7.57
2022-09-30T08:11:01.205Z,13.25
2022-09-30T08:16:03.902Z,8.05
2022-09-30T08:21:07.667Z,6.47
2022-09-30T08:26:13.163Z,6.82
2022-09-30T08:31:17.208Z,7.30
2022-09-30T08:36:21.798Z,10.52
2022-09-30T08:41:53.885Z,7.32
2022-09-30T08:47:00.949Z,8.15
2022-09-30T08:52:05.414Z,7.47
2022-09-30T08:57:12.275Z,8.52
2022-09-30T09:02:19.739Z,6.35
2022-09-30T09:07:31.908Z,6.38
2022-09-30T09:12:42.639Z,7.25
2022-09-30T09:18:22.009Z,6.05
2022-09-30T09:23:22.189Z,5.60
2022-09-30T09:28:33.774Z,5.57
2022-09-30T09:33:37.264Z,4.72
2022-09-30T09:38:55.084Z,4.57
2022-09-30T09:44:03.575Z,8.48
2022-09-30T09:49:28.652Z,4.75
2022-09-30T09:54:33.092Z,5.05
2022-09-30T09:59:37.618Z,4.10
2022-09-30T10:04:50.944Z,6.07
2022-09-30T10:10:07.745Z,3.47
2022-09-30T10:15:21.784Z,3.63
2022-09-30T10:20:29.125Z,2.90
2022-09-30T10:25:32.069Z,4.13
2022-09-30T10:30:43.925Z,2.72
2022-09-30T10:36:16.129Z,3.47
2022-09-30T10:41:23.928Z,3.17
2022-09-30T10:46:30.621Z,2.97
2022-09-30T10:51:36.299Z,3.08
2022-09-30T10:56:45.028Z,3.60
2022-09-30T11:01:53.884Z,3.58
2022-09-30T11:07:06.112Z,3.97
2022-09-30T11:12:14.063Z,2.88
2022-09-30T11:17:28.706Z,2.17
2022-09-30T11:22:37.322Z,2.47
2022-09-30T11:27:49.339Z,2.30
2022-09-30T11:33:08.470Z,3.72
2022-09-30T11:38:21.250Z,1.70
2022-09-30T11:43:31.166Z,1.60
2022-09-30T11:48:46.356Z,2.47
2022-09-30T11:53:57.430Z,1.50
2022-09-30T11:59:02.131Z,2.33
2022-09-30T12:04:08.882Z,2.55
2022-09-30T12:09:16.924Z,2.97
2022-09-30T12:14:24.641Z,2.33
2022-09-30T12:19:32.312Z,3.13
2022-09-30T12:24:37.357Z,1.40
2022-09-30T12:30:00.890Z,3.17
2022-09-30T12:35:19.682Z,4.47
2022-09-30T12:40:33.609Z,2.40
2022-09-30T12:46:02.748Z,2.35
2022-09-30T12:51:08.059Z,2.42
2022-09-30T12:56:13.453Z,2.35
2022-09-30T13:01:18.401Z,3.15
2022-09-30T13:06:23.215Z,2.20
2022-09-30T13:11:42.048Z,2.47
2022-09-30T13:17:19.429Z,2.20
2022-09-30T13:22:56.979Z,1.40
2022-09-30T13:28:32.041Z,2.80
2022-09-30T13:33:44.373Z,1.40
2022-09-30T13:39:07.750Z,3.60
2022-09-30T13:44:16.257Z,3.05
2022-09-30T13:49:22.717Z,2.90
2022-09-30T13:54:31.757Z,1.42
2022-09-30T13:59:44.015Z,1.67
2022-09-30T14:05:00.831Z,1.33
2022-09-30T14:10:16.473Z,2.30
2022-09-30T14:15:47.230Z,1.75
2022-09-30T14:21:01.886Z,3.75
2022-09-30T14:26:16.071Z,3.40
2022-09-30T14:31:20.273Z,3.65
2022-09-30T14:36:23.592Z,2.25
2022-09-30T14:41:28.189Z,3.35
2022-09-30T14:46:34.249Z,3.92
2022-09-30T14:51:43.507Z,2.88
2022-09-30T14:56:48.451Z,2.75
2022-09-30T15:01:55.327Z,2.05
2022-09-30T15:07:00.293Z,2.50
2022-09-30T15:12:11.057Z,3.03
2022-09-30T15:17:19.265Z,3.75
2022-09-30T15:22:22.380Z,3.08
2022-09-30T15:27:29.868Z,2.20
2022-09-30T15:32:33.889Z,2.45
2022-09-30T15:37:36.626Z,3.30
2022-09-30T15:42:42.407Z,2.40
2022-09-30T15:47:56.478Z,2.53
2022-09-30T15:53:04.919Z,2.72
2022-09-30T15:58:33.533Z,2.20
2022-09-30T16:03:36.438Z,4.15
2022-09-30T16:08:43.952Z,2.97
2022-09-30T16:13:48.199Z,2.03
2022-09-30T16:18:52.486Z,3.72
2022-09-30T16:23:55.393Z,3.50
2022-09-30T16:29:05.864Z,7.18
2022-09-30T16:34:13.764Z,7.65
2022-09-30T16:39:17.324Z,7.80
2022-09-30T16:44:23.076Z,2.75
2022-09-30T16:49:25.947Z,4.38
2022-09-30T16:54:28.640Z,4.18
2022-09-30T16:59:33.212Z,4.10
2022-09-30T17:04:38.601Z,5.78
2022-09-30T17:09:43.109Z,6.75
2022-09-30T17:14:47.378Z,4.28
2022-09-30T17:19:50.031Z,2.85
2022-09-30T17:24:52.628Z,8.32
2022-09-30T17:29:56.682Z,4.03
2022-09-30T17:34:59.316Z,4.90
2022-09-30T17:40:22.503Z,3.83
2022-09-30T17:45:28.048Z,8.35
2022-09-30T17:50:30.772Z,7.05
2022-09-30T17:55:34.620Z,5.72
2022-09-30T18:00:38.637Z,6.40
2022-09-30T18:05:41.226Z,11.73
2022-09-30T18:10:43.842Z,6.57
2022-09-30T18:15:48.031Z,8.98
2022-09-30T18:20:51.937Z,5.85
2022-09-30T18:25:54.948Z,6.93
2022-09-30T18:31:05.778Z,10.60
2022-09-30T18:36:08.404Z,8.18
2022-09-30T18:41:11.322Z,9.07
2022-09-30T18:46:15.443Z,6.32
2022-09-30T18:51:18.573Z,5.97
2022-09-30T18:56:22.477Z,7.38
2022-09-30T19:01:27.259Z,7.78
2022-09-30T19:06:30.022Z,8.10
2022-09-30T19:11:33.537Z,9.10
2022-09-30T19:16:39.093Z,8.60
2022-09-30T19:21:42.045Z,7.03
2022-09-30T19:26:47.897Z,6.18
2022-09-30T19:31:51.949Z,6.25
2022-09-30T19:36:57.867Z,7.45
2022-09-30T19:42:04.047Z,7.53
2022-09-30T19:47:08.254Z,7.25
2022-09-30T19:52:20.140Z,11.52
2022-09-30T19:57:24.650Z,9.73
2022-09-30T20:02:28.670Z,7.70
2022-09-30T20:07:31.383Z,6.70
2022-09-30T20:12:34.099Z,10.57
2022-09-30T20:17:38.032Z,7.18
2022-09-30T20:22:40.782Z,8.32
2022-09-30T20:27:49.843Z,11.25
2022-09-30T20:32:56.018Z,13.23
2022-09-30T20:37:58.626Z,10.45
2022-09-30T20:43:04.065Z,10.43
2022-09-30T20:48:08.554Z,8.93
2022-09-30T20:53:13.633Z,10.18
2022-09-30T20:58:16.263Z,7.13
2022-09-30T21:03:20.230Z,6.55
2022-09-30T21:08:23.046Z,8.07
2022-09-30T21:13:25.654Z,10.13
2022-09-30T21:18:29.681Z,5.40
2022-09-30T21:23:33.706Z,6.50
2022-09-30T21:28:37.003Z,5.10
2022-09-30T21:33:42.311Z,5.90
2022-09-30T21:38:44.921Z,4.90
2022-09-30T21:43:48.232Z,5.25
2022-09-30T21:48:53.600Z,5.00
2022-09-30T21:53:56.162Z,5.60
2022-09-30T21:58:58.867Z,5.07
2022-09-30T22:04:03.360Z,6.10
2022-09-30T22:09:05.966Z,6.15
2022-09-30T22:14:08.608Z,4.50
2022-09-30T22:19:13.534Z,4.00
2022-09-30T22:24:16.109Z,4.85
2022-09-30T22:29:18.713Z,3.85
2022-09-30T22:34:40.127Z,4.80
2022-09-30T22:39:42.759Z,4.72
2022-09-30T22:44:46.213Z,3.67
2022-09-30T22:49:50.182Z,4.20
2022-09-30T22:54:53.792Z,2.67
2022-09-30T22:59:58.916Z,3.20
2022-09-30T23:05:02.899Z,4.32
2022-09-30T23:10:06.588Z,4.63
2022-09-30T23:15:09.826Z,4.10
2022-09-30T23:20:13.800Z,5.20
2022-09-30T23:25:16.676Z,4.93
2022-09-30T23:30:19.294Z,3.30
2022-09-30T23:35:23.250Z,3.38
2022-09-30T23:40:25.878Z,5.05
2022-09-30T23:45:28.563Z,3.20
2022-09-30T23:50:33.337Z,3.67
2022-09-30T23:55:35.966Z,4.30
